This is the latest recevied weather packets stored in our database for station/object HB9TJR-3. If no packets are shown the sender has not sent any weather packets the latest 10 day(s).
| Time | Temp. | Humidity | Pressure | Rain* | Wind** | Luminosity | Snow |
|---|---|---|---|---|---|---|---|
| 1787622690 | 14.44° C | 88% | 864.1 hPa | 0 mm | - | - | - |
| 1787621730 | 15° C | 87% | 863.9 hPa | 0 mm | - | - | - |
| 1787620770 | 15° C | 87% | 864 hPa | 0 mm | - | - | - |
| 1787619811 | 15° C | 87% | 863.9 hPa | 0 mm | - | - | - |
| 1787618850 | 15° C | 89% | 863.8 hPa | 0 mm | - | - | - |
| 1787617890 | 15° C | 88% | 863.9 hPa | 0 mm | - | - | - |
| 1787616931 | 15.56° C | 85% | 863.9 hPa | 0 mm | - | - | - |
| 1787615971 | 15.56° C | 84% | 863.9 hPa | 0 mm | - | - | - |
| 1787615010 | 15.56° C | 82% | 863.9 hPa | 0 mm | - | - | - |
| 1787614050 | 15.56° C | 83% | 863.7 hPa | 0 mm | - | - | - |
| 1787613090 | 15.56° C | 84% | 863.7 hPa | 0 mm | - | - | - |
| 1787612131 | 15.56° C | 81% | 863.8 hPa | 0 mm | - | - | - |
| 1787611171 | 15.56° C | 83% | 863.8 hPa | 0 mm | - | - | - |
| 1787610211 | 15° C | 83% | 863.7 hPa | 0 mm | - | - | - |
| 1787609250 | 15° C | 84% | 863.7 hPa | 0 mm | - | - | - |
| 1787608467 | 15° C | 83% | 863.7 hPa | 0 mm | - | - | - |
| 1787608421 | 15° C | 83% | 863.7 hPa | 0 mm | - | - | - |
| 1787608290 | 15° C | 83% | 863.7 hPa | 0 mm | - | - | - |
| 1787607330 | 15° C | 84% | 864.2 hPa | 0 mm | - | - | - |
| 1787606370 | 14.44° C | 86% | 864.5 hPa | 0 mm | - | - | - |
| 1787605411 | 14.44° C | 88% | 865 hPa | 0 mm | - | - | - |
| 1787604450 | 13.89° C | 89% | 865.2 hPa | 0 mm | - | - | - |
| 1787603491 | 14.44° C | 87% | 865.3 hPa | 0 mm | - | - | - |
| 1787602531 | 14.44° C | 87% | 865 hPa | 0 mm | - | - | - |
| 1787601570 | 16.11° C | 79% | 865.3 hPa | 0 mm | - | - | - |
* Rain latest hour (hover to see other rain measurements)
** Current wind speed in m/s (hover to see current wind gust speed)